Greenwood, SC (29649)

2:00 PM EST on January 26, 2015 (GMT -0500)
APRSWXNET Greenwood SC US | Change Station
CLOSE
Current Station
Personal Weather Station
Location: Greenwood, SC
Elevation: 547 ft
Nearby Weather Stations

Elev 547 ft 34.24 °N, 82.17 °W | Updated 26 minutes ago

Mostly Cloudy
Mostly Cloudy
54 °F
Feels Like 54 °F
N
5
Wind Variable Wind from WNW
Gusts 11.0 mph

Today
High -- | Low -- °F
--% Chance of Precip.
Yesterday
High -- | Low -- °F
Precip. -- in
7:30 AM 5:52 PM
Waxing Crescent, 45% visible
Pressure 29.67 in
Visibility 10.0 miles
Clouds Scattered Clouds 4900 ft
Mostly Cloudy 9000 ft
Dew Point 37 °F
Humidity 53%
Rainfall 0.00 in
Snow Depth Not available.
UV 2 out of 12
Pollen .60 out of 12
Air Quality Not available.
Flu Activity Not available.
METAR KGRD 261856Z AUTO 29012G20KT 10SM SCT049 BKN090 13/00 A2967 RMK AO2 SLP045 T01330000

More Conditions Fewer Conditions

Pressure 29.67 in
Visibility 10.0 miles
Clouds Scattered Clouds 4900 ft
Mostly Cloudy 9000 ft
Dew Point 37 °F
Humidity 53%
Rainfall 0.00 in
Snow Depth Not available.
UV 2 out of 12
Pollen .60 out of 12
Air Quality Not available.
Flu Activity Not available.
METAR KGRD 261856Z AUTO 29012G20KT 10SM SCT049 BKN090 13/00 A2967 RMK AO2 SLP045 T01330000

More Conditions Fewer Conditions

10-Day Weather Forecast

Almanac

Astronomy

Jan. 26, 2015 Rise Set
Actual Time
Civil Twilight
Nautical Twilight
Astronomical Twilight
Moon
Length of Visible Light
Length of Day
Tomorrow will be .
, % of the Moon is Illuminated

Today's Extremes

State Highs State Lows

Community

WunderPhotos

Upload Photos

1,790,329 photos uploaded!

WunderBlogs® & News

Nearby

Air Quality

  Air Quality AQ Index Pollutant
Not available.

Snow Depth

Station Depth Elevation

Earthquake Activity

City Distance Mag. Time & Date
Minimum magnitude displayed is 2.5.

Coastal Water Temperatures

Place Temperature

Nearby Weather Stations